Time;durP1;ratioP1;P1;durP2;ratioP2;P2;SDS_P1;SDS_P2;PMS_P1;PMS_P2;Temp;Humidity;BMP_temperature;BMP_pressure;BME280_temperature;BME280_humidity;BME280_pressure;Samples;Min_cycle;Max_cycle;Signal;HPM_P1;HPM_P2
2022/04/23 00:00:20;;;;;;;25.15;10.15;;;;;;;8.65;71.96;99894.59;5053692;28;20029;-47
2022/04/23 00:02:46;;;;;;;23.00;9.32;;;;;;;8.59;71.82;99889.19;5053772;28;20369;-49
2022/04/23 00:05:12;;;;;;;24.50;8.95;;;;;;;8.43;73.05;99884.94;5053835;28;20029;-44
2022/04/23 00:07:38;;;;;;;28.35;10.15;;;;;;;8.51;73.05;99879.47;5053601;28;20051;-43
2022/04/23 00:10:04;;;;;;;23.27;8.95;;;;;;;8.49;72.28;99865.47;5052435;28;20035;-44
2022/04/23 00:12:30;;;;;;;25.10;9.50;;;;;;;8.61;72.51;99871.09;5054092;28;20033;-44
2022/04/23 00:14:56;;;;;;;34.15;9.50;;;;;;;8.60;73.26;99880.97;5053732;28;20025;-44
2022/04/23 00:17:22;;;;;;;34.58;10.68;;;;;;;8.57;73.40;99870.66;5053563;28;20037;-43
2022/04/23 00:19:48;;;;;;;32.58;9.30;;;;;;;8.60;72.82;99869.44;5054016;28;20079;-45
2022/04/23 00:22:16;;;;;;;25.65;8.43;;;;;;;8.46;73.67;99865.84;5053557;28;20029;-43
2022/04/23 00:24:43;;;;;;;32.92;9.23;;;;;;;8.57;73.29;99864.47;5035941;28;20043;-43
2022/04/23 00:27:08;;;;;;;24.33;8.05;;;;;;;8.50;73.47;99864.41;5018987;28;20091;-44
2022/04/23 00:29:35;;;;;;;23.83;7.65;;;;;;;8.59;73.10;99852.56;5034966;28;20036;-43
2022/04/23 00:32:03;;;;;;;32.17;9.50;;;;;;;8.64;72.52;99871.53;5035463;28;20428;-43
2022/04/23 00:34:28;;;;;;;31.65;10.27;;;;;;;8.63;73.36;99866.38;5035145;28;20473;-43
2022/04/23 00:36:55;;;;;;;27.30;9.00;;;;;;;8.50;73.21;99851.84;5053507;28;20032;-43
2022/04/23 00:39:20;;;;;;;34.28;9.77;;;;;;;8.29;73.41;99803.75;5053384;28;20041;-43
2022/04/23 00:41:46;;;;;;;27.20;9.30;;;;;;;8.68;73.09;99867.44;5035749;28;20032;-45
2022/04/23 00:44:14;;;;;;;25.95;9.32;;;;;;;8.41;73.97;99839.63;5053267;28;20481;-43
2022/04/23 00:46:41;;;;;;;37.28;10.00;;;;;;;8.61;73.93;99866.56;5036130;28;20051;-45
2022/04/23 00:49:06;;;;;;;16.30;8.15;;;;;;;8.46;73.69;99841.75;5052935;28;20115;-43
2022/04/23 00:51:52;;;;;;;22.50;8.88;;;;;;;8.53;74.38;99867.53;5052121;28;20040;-42
2022/04/23 00:54:38;;;;;;;22.45;7.72;;;;;;;8.41;74.62;99863.69;5051601;28;20037;-44
2022/04/23 00:57:25;;;;;;;25.17;7.60;;;;;;;8.36;74.47;99851.94;5052691;28;20037;-44
2022/04/23 01:00:12;;;;;;;22.45;8.68;;;;;;;8.31;74.18;99860.56;5054579;28;20033;-44
2022/04/23 01:02:58;;;;;;;26.38;8.18;;;;;;;8.18;74.72;99839.88;5040530;28;20085;-44
2022/04/23 01:05:46;;;;;;;23.85;8.55;;;;;;;8.20;74.86;99850.38;5054492;28;20033;-42
2022/04/23 01:08:33;;;;;;;30.23;8.93;;;;;;;8.10;75.68;99837.34;5054797;28;20129;-44
2022/04/23 01:11:20;;;;;;;34.78;9.68;;;;;;;8.12;75.89;99857.50;5053667;28;20033;-43
2022/04/23 01:14:06;;;;;;;27.13;8.95;;;;;;;8.02;76.07;99856.19;5054298;28;20032;-43
2022/04/23 01:16:52;;;;;;;28.30;10.57;;;;;;;7.88;77.49;99848.03;5054897;28;20086;-43
2022/04/23 01:19:38;;;;;;;31.25;10.05;;;;;;;7.76;77.25;99833.53;5039307;28;20033;-43
2022/04/23 01:22:24;;;;;;;37.50;10.50;;;;;;;7.74;77.24;99840.91;5054382;28;20113;-43
2022/04/23 01:25:13;;;;;;;28.83;9.43;;;;;;;7.75;76.73;99829.22;5040264;28;20226;-45
2022/04/23 01:28:00;;;;;;;29.75;10.13;;;;;;;7.81;76.76;99835.63;5054757;28;20070;-43
2022/04/23 01:30:49;;;;;;;28.77;10.40;;;;;;;7.73;76.46;99821.38;5054014;28;20124;-43
2022/04/23 01:33:35;;;;;;;34.20;11.45;;;;;;;7.64;76.99;99822.53;5054670;28;20032;-42
2022/04/23 01:36:21;;;;;;;37.95;11.98;;;;;;;7.29;78.08;99766.25;5053918;28;20059;-42
2022/04/23 01:39:07;;;;;;;34.60;10.50;;;;;;;7.72;76.88;99835.75;5054315;28;20033;-42
2022/04/23 01:41:53;;;;;;;37.75;10.40;;;;;;;7.69;76.85;99832.63;5054325;28;20025;-43
2022/04/23 01:44:40;;;;;;;32.58;10.38;;;;;;;7.57;78.32;99830.47;5055221;28;20044;-43
2022/04/23 01:47:26;;;;;;;25.63;9.73;;;;;;;7.62;77.85;99834.44;5032817;28;20522;-46
2022/04/23 01:50:12;;;;;;;40.13;10.48;;;;;;;7.52;77.74;99824.03;5038919;28;20033;-45
2022/04/23 01:52:58;;;;;;;40.00;10.57;;;;;;;7.44;78.66;99830.31;5053767;28;20037;-43
2022/04/23 01:55:44;;;;;;;47.08;11.02;;;;;;;7.35;79.30;99829.63;5054804;28;20041;-43
2022/04/23 01:58:30;;;;;;;35.58;10.32;;;;;;;7.22;79.64;99808.09;5056522;28;20524;-43
2022/04/23 02:01:17;;;;;;;38.97;9.32;;;;;;;7.24;80.12;99826.59;5054097;28;20044;-43
2022/04/23 02:04:06;;;;;;;36.10;9.00;;;;;;;7.28;79.55;99819.88;5052969;28;20447;-43
2022/04/23 02:06:53;;;;;;;34.33;9.65;;;;;;;7.41;78.98;99828.06;5052511;28;20134;-43
2022/04/23 02:09:39;;;;;;;30.02;8.60;;;;;;;7.42;78.59;99826.19;5053881;28;20486;-44
2022/04/23 02:12:25;;;;;;;23.77;8.68;;;;;;;7.41;78.84;99814.69;5052519;28;20033;-44
2022/04/23 02:15:13;;;;;;;35.72;9.68;;;;;;;7.39;79.94;99813.22;5033134;28;20037;-44
2022/04/23 02:18:00;;;;;;;24.48;8.13;;;;;;;7.50;79.79;99820.72;5036254;28;20033;-46
2022/04/23 02:20:46;;;;;;;37.17;9.75;;;;;;;7.60;78.68;99813.25;5026461;28;20033;-44
2022/04/23 02:23:32;;;;;;;25.95;8.40;;;;;;;7.72;78.37;99816.22;5022840;28;20045;-44
2022/04/23 02:26:20;;;;;;;21.67;7.90;;;;;;;7.68;78.79;99810.44;5009515;28;20033;-46
2022/04/23 02:29:06;;;;;;;32.22;9.15;;;;;;;7.69;79.67;99817.44;5022049;28;20037;-44
2022/04/23 02:31:52;;;;;;;25.58;8.18;;;;;;;7.77;78.74;99815.66;5019773;28;20474;-46
2022/04/23 02:34:39;;;;;;;24.48;8.18;;;;;;;7.78;78.93;99806.59;5033742;28;20045;-46
2022/04/23 02:37:27;;;;;;;26.35;8.45;;;;;;;7.70;79.25;99815.59;5033971;28;20033;-44
2022/04/23 02:40:14;;;;;;;32.58;9.30;;;;;;;7.66;79.96;99815.13;5033920;28;20030;-44
2022/04/23 02:43:03;;;;;;;30.17;8.35;;;;;;;7.70;79.00;99808.38;5019601;28;20034;-44
2022/04/23 02:45:49;;;;;;;30.45;8.18;;;;;;;7.67;79.52;99799.91;5032182;28;20033;-44
2022/04/23 02:48:35;;;;;;;25.30;8.30;;;;;;;7.74;79.18;99800.81;5032954;28;20033;-45
2022/04/23 02:51:21;;;;;;;36.40;8.60;;;;;;;7.73;79.93;99804.53;5017966;28;20374;-46
2022/04/23 02:54:07;;;;;;;29.30;8.75;;;;;;;7.61;80.07;99790.00;5034031;28;20517;-44
2022/04/23 02:56:55;;;;;;;24.75;7.60;;;;;;;7.76;80.16;99801.44;5033964;28;20041;-44
2022/04/23 02:59:41;;;;;;;37.85;8.88;;;;;;;7.82;79.17;99798.03;5032913;28;20056;-44
2022/04/23 03:02:28;;;;;;;34.65;9.02;;;;;;;7.62;79.29;99754.25;5017756;28;20034;-47
2022/04/23 03:05:14;;;;;;;26.40;8.95;;;;;;;7.68;79.51;99773.00;5032710;28;20037;-44
2022/04/23 03:08:00;;;;;;;30.13;9.00;;;;;;;7.73;80.63;99783.97;5032217;28;20057;-45
2022/04/23 03:10:46;;;;;;;28.90;8.40;;;;;;;7.72;80.25;99778.81;5032166;28;20038;-44
2022/04/23 03:13:34;;;;;;;27.85;8.90;;;;;;;7.81;79.62;99769.63;5032368;28;20029;-44
2022/04/23 03:16:20;;;;;;;24.45;9.23;;;;;;;7.82;79.57;99771.31;5017948;28;20044;-43
2022/04/23 03:19:06;;;;;;;25.65;9.05;;;;;;;7.69;80.66;99760.47;5018035;28;20034;-48
2022/04/23 03:21:53;;;;;;;40.17;9.38;;;;;;;7.77;80.79;99776.38;5005033;28;20034;-46
2022/04/23 03:24:39;;;;;;;46.63;10.18;;;;;;;7.77;81.49;99773.72;5017661;28;20061;-46
2022/04/23 03:27:25;;;;;;;32.85;9.45;;;;;;;7.79;80.98;99771.66;5031740;28;20033;-47
2022/04/23 03:30:11;;;;;;;32.58;9.20;;;;;;;7.75;81.11;99762.41;5016326;28;20505;-46
2022/04/23 03:32:58;;;;;;;42.00;9.70;;;;;;;7.75;81.18;99771.22;5031911;28;20091;-44
2022/04/23 03:35:44;;;;;;;30.13;9.65;;;;;;;7.72;82.08;99770.78;5033030;28;20038;-45
2022/04/23 03:38:31;;;;;;;32.50;8.80;;;;;;;7.77;81.63;99767.56;5031885;28;20531;-45
2022/04/23 03:41:17;;;;;;;34.47;8.98;;;;;;;7.81;81.19;99764.28;5030987;28;20026;-45
2022/04/23 03:44:04;;;;;;;31.15;9.27;;;;;;;7.80;81.30;99762.66;5032105;28;20088;-46
2022/04/23 03:46:50;;;;;;;30.75;8.85;;;;;;;7.84;82.22;99763.09;5031793;28;20069;-45
2022/04/23 03:49:36;;;;;;;35.53;10.30;;;;;;;7.80;82.45;99751.97;5031225;28;20029;-44
2022/04/23 03:52:22;;;;;;;26.75;8.85;;;;;;;7.90;81.92;99759.63;5030365;28;20045;-44
2022/04/23 03:55:09;;;;;;;36.17;9.65;;;;;;;7.87;81.80;99749.31;5032220;28;20037;-44
2022/04/23 03:57:55;;;;;;;37.63;9.43;;;;;;;7.91;82.51;99756.78;5030968;28;20037;-45
2022/04/23 04:00:41;;;;;;;26.65;9.50;;;;;;;7.86;81.99;99750.34;5016716;28;20045;-44
2022/04/23 04:03:27;;;;;;;33.60;10.50;;;;;;;7.85;82.70;99746.00;5017912;28;20108;-44
2022/04/23 04:06:13;;;;;;;29.02;10.20;;;;;;;7.82;83.23;99746.41;5032541;28;20516;-45
2022/04/23 04:08:59;;;;;;;40.88;10.02;;;;;;;7.86;83.20;99755.69;5015201;28;20083;-44
2022/04/23 04:12:01;;;;;;;29.20;8.68;;;;;;;7.83;82.77;99732.03;5030001;28;20037;-44
2022/04/23 04:14:47;;;;;;;22.98;7.72;;;;;;;7.98;82.72;99745.28;5016642;28;20034;-45
2022/04/23 04:17:34;;;;;;;31.45;9.48;;;;;;;8.05;82.25;99746.16;5015699;28;20512;-45
2022/04/23 04:20:21;;;;;;;35.08;9.68;;;;;;;7.99;82.56;99738.94;5030553;28;20033;-52
2022/04/23 04:23:07;;;;;;;23.27;8.82;;;;;;;8.07;82.71;99752.97;5031228;28;20057;-46
2022/04/23 04:25:54;;;;;;;32.35;8.90;;;;;;;8.04;83.04;99745.34;5031224;28;20029;-46
2022/04/23 04:28:40;;;;;;;41.92;9.60;;;;;;;8.04;82.94;99741.84;5031022;28;20120;-47
2022/04/23 04:34:32;;;;;;;26.50;8.18;;;;;;;8.05;82.79;99730.94;5010162;28;20044;-44
2022/04/23 04:37:18;;;;;;;36.33;9.45;;;;;;;8.09;82.45;99734.06;5016814;28;20412;-47
2022/04/23 04:40:05;;;;;;;33.25;9.07;;;;;;;8.12;82.67;99742.53;5032734;28;20065;-46
2022/04/23 04:42:51;;;;;;;32.33;9.35;;;;;;;8.06;82.96;99726.41;5031441;28;20045;-45
2022/04/23 04:45:38;;;;;;;29.20;8.80;;;;;;;8.12;83.42;99737.16;5017000;28;20048;-44
2022/04/23 04:48:24;;;;;;;34.60;9.65;;;;;;;8.16;83.01;99734.94;5031346;28;20116;-46
2022/04/23 04:51:10;;;;;;;26.50;8.52;;;;;;;8.19;82.97;99731.88;5016502;28;20037;-45
2022/04/23 04:53:56;;;;;;;31.23;9.55;;;;;;;8.10;82.92;99719.69;5030871;28;20088;-45
2022/04/23 04:56:42;;;;;;;40.70;9.43;;;;;;;8.17;83.10;99738.44;5031067;28;20088;-45
2022/04/23 04:59:31;;;;;;;34.35;8.88;;;;;;;8.10;83.06;99730.38;5031214;28;20403;-46
2022/04/23 05:02:17;;;;;;;36.90;9.68;;;;;;;8.17;82.93;99744.59;5015882;28;20041;-43
2022/04/23 05:05:04;;;;;;;24.25;8.75;;;;;;;7.97;82.95;99709.72;5032988;28;20037;-44
2022/04/23 05:07:50;;;;;;;26.20;8.40;;;;;;;8.07;82.95;99720.06;5032063;28;20057;-44
2022/04/23 05:10:36;;;;;;;31.08;8.73;;;;;;;8.14;83.34;99732.44;5030679;28;20033;-44
2022/04/23 05:13:22;;;;;;;33.28;9.88;;;;;;;8.14;83.70;99736.97;5030820;28;20071;-46
2022/04/23 05:16:08;;;;;;;29.63;8.60;;;;;;;8.09;83.10;99731.38;5016819;28;20037;-46
2022/04/23 05:18:54;;;;;;;27.48;7.97;;;;;;;8.16;83.48;99739.47;5015186;28;20032;-44
2022/04/23 05:21:40;;;;;;;34.45;8.85;;;;;;;8.20;83.12;99743.41;5030100;28;20121;-44
2022/04/23 05:24:26;;;;;;;29.92;8.98;;;;;;;8.26;83.12;99740.75;5032052;28;20537;-44
2022/04/23 05:27:12;;;;;;;22.00;8.63;;;;;;;8.33;82.84;99744.28;5029969;28;20120;-44
2022/04/23 05:29:58;;;;;;;35.20;9.32;;;;;;;8.37;82.71;99751.94;5030463;28;20057;-44
2022/04/23 05:32:44;;;;;;;31.33;8.32;;;;;;;8.34;82.65;99740.59;5029389;28;20037;-43
2022/04/23 05:35:30;;;;;;;39.45;8.70;;;;;;;8.37;81.99;99744.72;5030913;28;20563;-44
2022/04/23 05:38:20;;;;;;;21.40;7.47;;;;;;;8.37;82.39;99742.03;5030240;28;20116;-46
2022/04/23 05:41:06;;;;;;;24.65;8.32;;;;;;;8.30;82.14;99742.03;5003774;28;20371;-44
2022/04/23 05:43:52;;;;;;;25.88;8.75;;;;;;;8.39;82.05;99749.88;5033767;28;20029;-44
2022/04/23 05:46:38;;;;;;;34.92;9.23;;;;;;;8.41;82.16;99745.97;5034300;28;20105;-45
2022/04/23 05:49:24;;;;;;;32.58;9.13;;;;;;;8.38;82.66;99748.25;5034552;28;20045;-45
2022/04/23 05:52:10;;;;;;;33.20;8.82;;;;;;;8.42;82.44;99744.19;5035029;28;20072;-45
2022/04/23 05:54:56;;;;;;;29.77;10.10;;;;;;;8.43;82.32;99744.00;5020062;28;20115;-44
2022/04/23 05:57:42;;;;;;;26.55;8.75;;;;;;;8.45;82.14;99746.44;5033640;28;20066;-45
2022/04/23 06:00:28;;;;;;;31.17;8.68;;;;;;;8.43;82.11;99738.63;5036136;28;20033;-44
2022/04/23 06:03:14;;;;;;;40.78;9.55;;;;;;;8.51;82.29;99748.34;5021498;28;20057;-44
2022/04/23 06:06:00;;;;;;;26.30;8.70;;;;;;;8.44;82.18;99736.78;5035160;28;20037;-45
2022/04/23 06:08:46;;;;;;;24.85;9.15;;;;;;;8.66;82.24;99759.75;5018513;28;20131;-46
2022/04/23 06:11:32;;;;;;;32.17;8.90;;;;;;;8.98;80.79;99753.91;5020129;28;20176;-49
2022/04/23 06:14:18;;;;;;;28.52;8.98;;;;;;;8.89;79.62;99735.31;5036348;28;20034;-44
2022/04/23 06:17:07;;;;;;;24.15;8.77;;;;;;;8.93;80.48;99765.19;5035091;28;20206;-46
2022/04/23 06:19:55;;;;;;;29.38;9.13;;;;;;;8.85;80.40;99754.66;5034163;28;20124;-45
2022/04/23 06:22:41;;;;;;;24.40;9.00;;;;;;;8.79;80.25;99752.81;5019944;28;20101;-44
2022/04/23 06:25:28;;;;;;;29.77;9.55;;;;;;;8.90;80.87;99769.13;5034162;28;20040;-46
2022/04/23 06:28:14;;;;;;;26.02;8.50;;;;;;;8.97;80.62;99765.63;5033876;28;20038;-45
2022/04/23 06:31:00;;;;;;;26.80;9.65;;;;;;;9.01;80.51;99770.41;5034068;28;20039;-44
2022/04/23 06:33:46;;;;;;;28.38;9.25;;;;;;;9.06;80.28;99759.06;5033968;28;20456;-44
2022/04/23 06:36:33;;;;;;;27.92;9.65;;;;;;;9.06;80.55;99757.22;5033956;28;20055;-44
2022/04/23 06:39:19;;;;;;;26.15;8.88;;;;;;;9.10;79.96;99753.13;5033949;28;20112;-45
2022/04/23 06:42:06;;;;;;;33.38;9.77;;;;;;;9.15;79.98;99757.03;5034008;28;20025;-46
2022/04/23 06:44:52;;;;;;;32.63;10.07;;;;;;;9.24;79.66;99759.31;5034648;28;20359;-45
2022/04/23 06:47:38;;;;;;;15.82;9.13;;;;;;;9.27;79.40;99766.16;5034690;28;20066;-44
2022/04/23 06:50:24;;;;;;;30.60;10.13;;;;;;;9.34;79.52;99755.44;5033737;28;20029;-47
2022/04/23 06:53:11;;;;;;;22.55;9.23;;;;;;;9.43;79.44;99756.88;5034416;28;20041;-46
2022/04/23 06:55:57;;;;;;;34.50;10.35;;;;;;;9.46;78.77;99754.63;5034268;28;20037;-46
2022/04/23 06:58:46;;;;;;;29.35;10.55;;;;;;;9.54;78.69;99753.59;5033788;28;20402;-46
2022/04/23 07:01:32;;;;;;;34.72;10.35;;;;;;;9.60;78.39;99765.38;5034509;28;20030;-45
2022/04/23 07:04:18;;;;;;;31.08;11.32;;;;;;;9.65;77.91;99770.94;5033058;28;20033;-45
2022/04/23 07:07:05;;;;;;;18.05;9.82;;;;;;;9.68;77.85;99751.78;5030811;28;20038;-45
2022/04/23 07:09:52;;;;;;;22.27;10.90;;;;;;;9.84;77.48;99764.78;5013752;28;20446;-56
2022/04/23 07:12:38;;;;;;;20.27;10.77;;;;;;;10.00;76.50;99751.97;5013010;28;20065;-44
2022/04/23 07:15:25;;;;;;;21.75;10.38;;;;;;;10.03;76.16;99736.31;5013094;28;20030;-45
2022/04/23 07:18:11;;;;;;;28.88;11.35;;;;;;;10.42;75.32;99760.63;5014145;28;20122;-45
2022/04/23 07:20:57;;;;;;;26.70;10.77;;;;;;;10.34;74.56;99740.19;5013277;28;20061;-45
2022/04/23 07:26:49;;;;;;;24.48;10.35;;;;;;;10.80;73.74;99752.66;5011611;28;20149;-43
2022/04/23 07:29:35;;;;;;;23.48;11.45;;;;;;;10.89;73.01;99753.22;5013432;28;20041;-44
2022/04/23 07:32:21;;;;;;;21.30;11.98;;;;;;;10.90;73.15;99746.84;5013671;28;20441;-44
2022/04/23 07:38:16;;;;;;;23.92;11.85;;;;;;;11.03;71.96;99746.78;5001172;28;20034;-46
2022/04/23 07:41:02;;;;;;;24.98;11.95;;;;;;;11.22;71.88;99752.25;5012652;28;20058;-44
2022/04/23 07:43:49;;;;;;;24.85;12.27;;;;;;;11.17;71.40;99733.25;5013944;28;20038;-44
2022/04/23 07:46:35;;;;;;;21.58;11.90;;;;;;;11.18;71.01;99745.63;5013535;28;20058;-45
2022/04/23 07:49:21;;;;;;;26.00;13.15;;;;;;;11.17;70.66;99744.00;4998167;28;20053;-43
2022/04/23 07:52:08;;;;;;;28.67;13.65;;;;;;;11.10;71.14;99735.97;5013063;28;20038;-45
2022/04/23 07:54:54;;;;;;;25.38;12.73;;;;;;;11.12;71.12;99752.69;5014359;28;20045;-44
2022/04/23 07:57:40;;;;;;;26.23;13.80;;;;;;;11.24;70.87;99734.06;5013357;28;20029;-46
2022/04/23 08:00:26;;;;;;;20.65;13.07;;;;;;;11.32;70.63;99739.16;4998961;28;20466;-42
2022/04/23 08:03:12;;;;;;;29.20;15.25;;;;;;;11.27;69.73;99751.59;5013126;28;20125;-44
2022/04/23 08:05:59;;;;;;;32.20;15.43;;;;;;;11.20;70.18;99736.34;5012350;28;20096;-44
2022/04/23 08:08:46;;;;;;;32.97;15.05;;;;;;;11.35;69.96;99749.50;5027684;28;20037;-43
2022/04/23 08:11:32;;;;;;;28.13;15.15;;;;;;;11.46;70.24;99744.44;5032385;28;20032;-46
2022/04/23 08:14:18;;;;;;;24.23;14.82;;;;;;;11.47;69.84;99746.09;5031704;28;20061;-47
2022/04/23 08:17:04;;;;;;;25.95;15.10;;;;;;;11.37;69.97;99750.09;5018453;28;20033;-43
2022/04/23 08:19:50;;;;;;;26.90;16.13;;;;;;;11.34;69.59;99745.13;5032427;28;20096;-45
2022/04/23 08:22:36;;;;;;;27.42;15.60;;;;;;;11.43;69.16;99751.91;5032665;28;20048;-45
2022/04/23 08:25:22;;;;;;;33.95;16.27;;;;;;;11.52;69.53;99746.28;5017416;28;20454;-45
2022/04/23 08:31:14;;;;;;;27.88;16.63;;;;;;;11.47;69.38;99756.84;5020547;28;20120;-43
